Time;durP1;ratioP1;P1;durP2;ratioP2;P2;SDS_P1;SDS_P2;PMS_P1;PMS_P2;Temp;Humidity;BMP_temperature;BMP_pressure;BME280_temperature;BME280_humidity;BME280_pressure;Samples;Min_cycle;Max_cycle;Signal;HPM_P1;HPM_P2
2022/08/24 00:00:19;;;;;;;;;;;;;;;;;;;;;
2022/08/24 00:02:48;;;;;;;1.25;0.70;;;;;;;17.92;100.00;94531.38;5077077;28;20043;-91
2022/08/24 00:05:16;;;;;;;0.98;0.80;;;;;;;17.97;100.00;94530.44;5076954;28;20033;-92
2022/08/24 00:07:44;;;;;;;2.00;0.70;;;;;;;18.05;100.00;94535.03;5059148;28;20443;-92
2022/08/24 00:10:12;;;;;;;0.85;0.70;;;;;;;18.00;100.00;94537.78;5059303;28;20035;-91
2022/08/24 00:12:38;;;;;;;0.70;0.60;;;;;;;18.04;100.00;94532.66;5042991;28;20029;-91
2022/08/24 00:15:06;;;;;;;3.33;0.88;;;;;;;17.75;100.00;94534.78;5059121;28;20345;-91
2022/08/24 00:17:33;;;;;;;0.75;0.65;;;;;;;17.69;100.00;94533.34;5059343;28;20098;-92
2022/08/24 00:20:01;;;;;;;0.90;0.68;;;;;;;17.66;100.00;94526.81;5059165;28;20512;-91
2022/08/24 00:22:33;;;;;;;2.15;0.63;;;;;;;17.79;100.00;94527.00;5059333;28;20028;-92
2022/08/24 00:24:59;;;;;;;0.70;0.60;;;;;;;17.75;100.00;94526.03;5043638;28;20024;-91
2022/08/24 00:27:26;;;;;;;1.27;0.85;;;;;;;17.72;100.00;94524.81;5076953;28;20027;-92
2022/08/24 00:29:52;;;;;;;1.05;0.70;;;;;;;17.86;100.00;94523.88;5058944;28;20025;-91
2022/08/24 00:32:30;;;;;;;;;;;;;;;;;;;;;
2022/08/24 00:34:56;;;;;;;0.93;0.60;;;;;;;17.72;100.00;94519.50;5061048;28;20029;-92
2022/08/24 00:37:24;;;;;;;3.30;0.77;;;;;;;17.66;100.00;94520.72;5076561;28;20051;-91
2022/08/24 00:39:52;;;;;;;0.60;0.60;;;;;;;17.92;100.00;94522.66;5059074;28;20028;-92
2022/08/24 00:42:20;;;;;;;2.63;1.08;;;;;;;17.89;100.00;94520.63;5076567;28;20028;-91
2022/08/24 00:44:53;;;;;;;2.08;0.88;;;;;;;17.99;100.00;94516.88;5059095;28;20100;-91
2022/08/24 00:47:25;;;;;;;2.33;1.00;;;;;;;17.90;100.00;94519.53;5060159;28;20026;-92
2022/08/24 00:49:59;;;;;;;1.40;0.60;;;;;;;17.95;100.00;94525.47;5062878;28;20031;-92
2022/08/24 00:52:45;;;;;;;;;;;;;;;17.85;100.00;94517.81;5063131;28;20052;-91
2022/08/24 00:55:23;;;;;;;1.27;0.63;;;;;;;17.64;100.00;94517.59;5046215;28;19908;-91
2022/08/24 00:57:51;;;;;;;0.70;0.60;;;;;;;17.46;100.00;94508.81;5062725;28;20031;-90
2022/08/24 01:00:21;;;;;;;1.10;0.63;;;;;;;17.52;100.00;94512.91;5062157;28;20043;-90
2022/08/24 01:03:02;;;;;;;;;;;;;;;;;;;;;
2022/08/24 01:05:27;;;;;;;1.02;0.57;;;;;;;17.67;100.00;94515.13;5080225;28;20024;-91
2022/08/24 01:07:56;;;;;;;1.20;0.70;;;;;;;17.69;100.00;94508.75;5062325;28;20455;-91
2022/08/24 01:10:25;;;;;;;1.15;0.60;;;;;;;17.81;100.00;94507.03;5062655;28;20042;-92
2022/08/24 01:12:56;;;;;;;0.47;0.47;;;;;;;17.86;100.00;94515.91;5045880;28;20337;-92
2022/08/24 01:15:22;;;;;;;1.10;0.80;;;;;;;17.90;100.00;94519.53;5062851;28;20024;-92
2022/08/24 01:20:33;;;;;;;1.10;0.50;;;;;;;17.95;100.00;94517.50;5025332;28;20084;-92
2022/08/24 01:23:43;;;;;;;1.50;0.75;;;;;;;17.62;100.00;94511.84;5022614;28;20323;-92
2022/08/24 01:26:13;;;;;;;2.30;0.80;;;;;;;17.69;100.00;94516.69;5038929;28;20041;-91
2022/08/24 01:28:47;;;;;;;1.30;0.80;;;;;;;17.62;100.00;94511.84;5026558;28;20032;-92
2022/08/24 01:31:13;;;;;;;1.77;0.80;;;;;;;17.58;100.00;94511.66;5026412;28;20037;-92
2022/08/24 01:33:41;;;;;;;1.60;0.75;;;;;;;17.31;100.00;94512.69;5042226;28;20101;-92
2022/08/24 01:39:33;;;;;;;0.50;0.50;;;;;;;17.50;100.00;94515.06;5059764;28;20082;-92
2022/08/24 01:42:01;;;;;;;1.92;0.70;;;;;;;17.42;100.00;94513.94;5041809;28;20060;-92
2022/08/24 01:44:29;;;;;;;2.38;1.15;;;;;;;17.33;100.00;94511.28;5042024;28;20075;-92
2022/08/24 01:47:05;;;;;;;;;;;;;;;;;;;;;
2022/08/24 01:49:34;;;;;;;1.58;0.80;;;;;;;17.15;100.00;94512.31;5042907;28;20035;-92
2022/08/24 01:52:10;;;;;;;;;;;;;;;;;;;;;
2022/08/24 01:54:43;;;;;;;2.88;0.93;;;;;;;17.23;100.00;94512.34;5042981;28;20016;-92
2022/08/24 01:57:14;;;;;;;1.27;0.93;;;;;;;17.35;100.00;94513.63;5042445;28;20102;-91
2022/08/24 01:59:42;;;;;;;1.75;0.80;;;;;;;17.32;100.00;94515.00;5041338;28;20394;-92
2022/08/24 02:02:15;;;;;;;4.18;0.80;;;;;;;17.27;100.00;94520.47;5041940;28;20033;-92
2022/08/24 02:04:40;;;;;;;1.00;0.60;;;;;;;17.36;100.00;94515.97;5041703;28;20029;-92
2022/08/24 02:07:08;;;;;;;1.38;0.60;;;;;;;17.16;100.00;94508.56;5041541;28;20028;-92
2022/08/24 02:09:36;;;;;;;0.90;0.77;;;;;;;17.23;100.00;94511.56;5041347;28;20449;-92
2022/08/24 02:12:03;;;;;;;0.63;0.52;;;;;;;17.14;100.00;94511.50;5041545;28;20037;-93
2022/08/24 02:14:31;;;;;;;1.00;0.90;;;;;;;17.01;100.00;94504.47;5058693;28;20025;-92
2022/08/24 02:17:07;;;;;;;1.40;0.50;;;;;;;17.19;100.00;94506.09;5058606;28;20033;-91
2022/08/24 02:19:36;;;;;;;0.80;0.80;;;;;;;17.21;100.00;94521.66;5058519;28;20111;-91
2022/08/24 02:22:02;;;;;;;0.68;0.60;;;;;;;17.25;100.00;94514.69;5041107;28;20031;-92
2022/08/24 02:24:28;;;;;;;1.63;0.70;;;;;;;16.97;100.00;94509.56;5040691;28;20025;-91
2022/08/24 02:26:55;;;;;;;1.33;0.70;;;;;;;17.07;100.00;94516.47;5024388;28;20053;-92
2022/08/24 02:29:20;;;;;;;0.77;0.65;;;;;;;17.08;100.00;94510.09;5040881;28;20021;-92
2022/08/24 02:31:46;;;;;;;1.55;0.60;;;;;;;17.14;100.00;94510.75;5024421;28;20028;-92
2022/08/24 02:34:12;;;;;;;1.10;0.55;;;;;;;16.93;100.00;94513.91;5040806;28;20035;-91
2022/08/24 02:40:01;;;;;;;1.20;0.90;;;;;;;17.04;100.00;94519.75;5058275;28;20338;-91
2022/08/24 02:42:26;;;;;;;0.82;0.70;;;;;;;17.02;100.00;94522.69;5040883;28;20119;-91
2022/08/24 02:44:52;;;;;;;0.93;0.70;;;;;;;17.16;100.00;94522.59;5024065;28;20060;-93
2022/08/24 02:47:17;;;;;;;0.82;0.65;;;;;;;17.13;100.00;94522.41;5040680;28;20095;-92
2022/08/24 02:49:43;;;;;;;2.00;0.73;;;;;;;17.02;100.00;94527.22;5057866;28;20044;-91
2022/08/24 02:52:09;;;;;;;0.77;0.70;;;;;;;17.34;100.00;94523.44;5024142;28;20433;-91
2022/08/24 02:54:38;;;;;;;1.10;0.60;;;;;;;17.18;100.00;94531.00;5040511;28;20021;-91
2022/08/24 02:57:09;;;;;;;0.93;0.60;;;;;;;17.15;100.00;94530.84;5040853;28;20024;-91
2022/08/24 02:59:35;;;;;;;1.20;0.65;;;;;;;16.92;100.00;94521.03;5040390;28;20028;-91
2022/08/24 03:02:01;;;;;;;1.23;0.73;;;;;;;16.73;100.00;94521.25;5040418;28;20025;-91
2022/08/24 03:04:26;;;;;;;0.90;0.77;;;;;;;16.86;100.00;94527.56;5040103;28;20070;-91
2022/08/24 03:10:24;;;;;;;2.28;0.73;;;;;;;16.74;100.00;94519.41;5056925;28;20444;-91
2022/08/24 03:12:51;;;;;;;0.60;0.55;;;;;;;16.66;100.00;94519.03;5024967;28;20032;-92
2022/08/24 03:15:27;;;;;;;;;;;;;;;;;;;;;
2022/08/24 03:17:53;;;;;;;1.02;0.68;;;;;;;16.85;100.00;94520.69;5041572;28;20025;-92
2022/08/24 03:20:31;;;;;;;;;;;;;;;;;;;;;
2022/08/24 03:23:04;;;;;;;1.00;0.70;;;;;;;17.03;100.00;94518.94;5057521;28;20023;-92
2022/08/24 03:25:30;;;;;;;2.80;0.80;;;;;;;17.03;100.00;94516.31;5041008;28;20029;-92
2022/08/24 03:27:56;;;;;;;3.70;0.90;;;;;;;17.01;100.00;94520.34;5039901;28;20103;-92
2022/08/24 03:30:23;;;;;;;0.57;0.50;;;;;;;17.10;100.00;94518.50;5023532;28;20036;-92
2022/08/24 03:32:49;;;;;;;2.42;1.00;;;;;;;17.06;100.00;94520.22;5039635;28;20029;-91
2022/08/24 03:35:26;;;;;;;;;;;;;;;;;;;;;
2022/08/24 03:37:54;;;;;;;0.68;0.60;;;;;;;16.96;100.00;94522.00;5041206;28;20058;-92
2022/08/24 03:40:26;;;;;;;0.95;0.75;;;;;;;17.09;100.00;94520.38;5039865;28;20108;-91
2022/08/24 03:43:00;;;;;;;1.90;0.80;;;;;;;17.20;100.00;94517.47;5039933;28;20055;-93
2022/08/24 03:45:26;;;;;;;1.70;0.70;;;;;;;17.21;100.00;94511.06;5026589;28;20079;-92
2022/08/24 03:47:52;;;;;;;0.80;0.60;;;;;;;17.31;100.00;94512.69;5019546;28;20504;-91
2022/08/24 03:50:19;;;;;;;1.13;0.80;;;;;;;17.31;100.00;94512.69;5019504;28;20037;-92
2022/08/24 03:52:45;;;;;;;1.08;0.77;;;;;;;17.27;100.00;94517.00;5019352;28;20026;-91
2022/08/24 03:55:12;;;;;;;0.75;0.75;;;;;;;17.15;100.00;94521.03;5019644;28;20025;-91
2022/08/24 03:57:39;;;;;;;1.20;0.80;;;;;;;17.15;100.00;94525.53;5003314;28;20025;-91
2022/08/24 04:00:08;;;;;;;1.35;0.88;;;;;;;17.21;100.00;94517.16;5019750;28;20033;-91
2022/08/24 04:02:44;;;;;;;;;;;;;;;;;;;;;
2022/08/24 04:05:12;;;;;;;2.80;0.80;;;;;;;17.15;100.00;94518.41;5020821;28;20023;-91
2022/08/24 04:07:39;;;;;;;0.82;0.77;;;;;;;16.96;100.00;94514.06;5003292;28;20469;-92
2022/08/24 04:10:05;;;;;;;1.15;0.70;;;;;;;17.12;100.00;94515.56;5003395;28;20029;-93
2022/08/24 04:12:33;;;;;;;0.82;0.63;;;;;;;17.49;100.00;94516.16;5019227;28;20039;-92
2022/08/24 04:15:01;;;;;;;1.35;0.90;;;;;;;17.61;100.00;94516.34;5003344;28;20033;-91
2022/08/24 04:17:37;;;;;;;;;;;;;;;;;;;;;
2022/08/24 04:20:03;;;;;;;3.17;0.80;;;;;;;17.51;100.00;94519.31;5020861;28;20016;-91
2022/08/24 04:22:32;;;;;;;1.63;0.80;;;;;;;17.49;100.00;94524.91;5021417;28;20119;-91
2022/08/24 04:24:58;;;;;;;3.70;0.85;;;;;;;17.25;100.00;94525.28;5006988;28;20076;-92
2022/08/24 04:27:24;;;;;;;1.17;0.77;;;;;;;17.29;100.00;94520.16;5023219;28;20021;-91
2022/08/24 04:29:51;;;;;;;1.40;0.88;;;;;;;17.24;100.00;94526.38;5023265;28;20025;-91
2022/08/24 04:32:19;;;;;;;1.58;0.80;;;;;;;17.40;100.00;94528.59;5023463;28;20025;-91
2022/08/24 04:34:47;;;;;;;0.75;0.70;;;;;;;17.35;100.00;94540.88;5007201;28;20021;-91
2022/08/24 04:37:13;;;;;;;1.45;0.70;;;;;;;17.00;100.00;94534.66;5023200;28;20048;-90
2022/08/24 04:39:38;;;;;;;0.80;0.77;;;;;;;16.64;100.00;94533.63;5022920;28;20100;-91
2022/08/24 04:42:05;;;;;;;1.05;0.70;;;;;;;16.92;100.00;94531.63;5006523;28;20041;-88
2022/08/24 04:44:30;;;;;;;1.50;0.90;;;;;;;16.74;100.00;94538.69;5012948;28;20040;-86
2022/08/24 04:46:56;;;;;;;0.98;0.65;;;;;;;16.84;100.00;94544.81;5033916;28;20434;-88
2022/08/24 04:49:21;;;;;;;1.23;0.90;;;;;;;17.02;100.00;94533.25;5042151;28;20048;-87
2022/08/24 04:51:47;;;;;;;0.90;0.75;;;;;;;17.10;100.00;94539.69;5026167;28;20028;-86
2022/08/24 04:54:12;;;;;;;1.55;0.95;;;;;;;17.14;100.00;94542.50;5059784;28;20032;-87
2022/08/24 04:56:38;;;;;;;1.33;0.65;;;;;;;17.07;100.00;94543.75;5059780;28;20040;-86
2022/08/24 04:59:04;;;;;;;1.92;0.93;;;;;;;17.25;100.00;94541.16;5059627;28;20033;-85
2022/08/24 05:01:31;;;;;;;0.70;0.70;;;;;;;17.24;100.00;94547.56;5041933;28;20025;-86
2022/08/24 05:03:57;;;;;;;0.85;0.75;;;;;;;17.24;100.00;94543.03;5025679;28;20025;-86
2022/08/24 05:06:25;;;;;;;1.05;0.80;;;;;;;17.27;100.00;94546.94;5041789;28;20033;-86
2022/08/24 05:08:51;;;;;;;0.80;0.70;;;;;;;17.10;100.00;94545.78;5041739;28;20024;-86
2022/08/24 05:11:18;;;;;;;1.15;0.70;;;;;;;17.40;100.00;94547.16;5021746;28;20041;-86
2022/08/24 05:13:44;;;;;;;1.33;0.80;;;;;;;17.37;100.00;94549.31;5021975;28;20036;-86
2022/08/24 05:16:13;;;;;;;1.13;0.60;;;;;;;17.34;100.00;94544.63;5005630;28;20029;-86
2022/08/24 05:18:39;;;;;;;0.47;0.47;;;;;;;17.51;100.00;94553.72;5005604;28;20033;-86
2022/08/24 05:21:09;;;;;;;4.30;0.95;;;;;;;17.44;100.00;94548.88;5038249;28;20021;-85
2022/08/24 05:23:36;;;;;;;1.63;0.85;;;;;;;17.31;100.00;94550.53;5021895;28;20029;-86
2022/08/24 05:26:28;;;;;;;2.22;0.80;;;;;;;17.25;100.00;94554.41;5038210;28;20053;-86
2022/08/24 05:28:58;;;;;;;8.75;1.33;;;;;;;17.35;100.00;94556.00;5016839;28;20450;-86
2022/08/24 05:31:26;;;;;;;1.23;0.88;;;;;;;17.64;100.00;94560.00;5021625;28;20028;-86
2022/08/24 05:33:52;;;;;;;1.42;0.90;;;;;;;17.67;100.00;94560.16;5020804;28;20029;-86
2022/08/24 05:36:29;;;;;;;2.05;0.85;;;;;;;17.94;100.00;94560.22;5037953;28;20025;-86
2022/08/24 05:38:56;;;;;;;1.30;0.75;;;;;;;18.06;100.00;94565.72;5021505;28;20029;-85
2022/08/24 05:41:23;;;;;;;1.92;0.70;;;;;;;18.13;100.00;94569.78;5039004;28;20025;-85
2022/08/24 05:43:48;;;;;;;2.33;0.90;;;;;;;18.15;100.00;94567.63;5005394;28;20091;-86
2022/08/24 05:46:14;;;;;;;0.85;0.70;;;;;;;18.09;100.00;94559.81;5005230;28;20033;-86
2022/08/24 05:48:43;;;;;;;0.98;0.70;;;;;;;18.50;100.00;94559.69;5021197;28;20029;-86
2022/08/24 05:51:10;;;;;;;3.17;0.80;;;;;;;18.74;100.00;94553.88;5004967;28;20029;-86
2022/08/24 05:53:35;;;;;;;0.73;0.70;;;;;;;18.92;100.00;94565.25;5005042;28;20029;-86
2022/08/24 05:56:03;;;;;;;1.02;0.77;;;;;;;18.90;100.00;94561.34;5004976;28;20182;-86
2022/08/24 05:58:31;;;;;;;1.13;0.80;;;;;;;19.13;100.00;94563.84;5004756;28;20036;-87
2022/08/24 06:00:58;;;;;;;0.98;0.80;;;;;;;19.16;100.00;94571.97;5005527;28;20029;-86
2022/08/24 06:03:24;;;;;;;1.95;0.60;;;;;;;19.30;100.00;94561.13;5004984;28;20026;-87
2022/08/24 06:05:51;;;;;;;2.15;0.80;;;;;;;19.53;100.00;94565.41;5021258;28;20120;-86
2022/08/24 06:08:17;;;;;;;1.67;1.00;;;;;;;19.68;100.00;94570.19;5005186;28;20342;-86
2022/08/24 06:10:46;;;;;;;3.50;1.13;;;;;;;19.80;100.00;94568.72;5004520;28;20033;-85
2022/08/24 06:13:13;;;;;;;1.42;0.80;;;;;;;19.74;100.00;94574.25;5004805;28;20030;-87
2022/08/24 06:15:39;;;;;;;1.15;0.70;;;;;;;19.86;100.00;94568.22;5020938;28;20029;-87
2022/08/24 06:18:05;;;;;;;0.80;0.73;;;;;;;20.01;100.00;94577.56;5004615;28;20025;-87
2022/08/24 06:20:31;;;;;;;0.88;0.63;;;;;;;20.01;100.00;94579.44;5020638;28;20115;-88
2022/08/24 06:22:57;;;;;;;2.65;0.80;;;;;;;19.92;100.00;94571.50;5021049;28;20025;-88
2022/08/24 06:28:06;;;;;;;2.95;0.70;;;;;;;20.09;100.00;94580.47;5022900;28;20028;-87
2022/08/24 06:30:33;;;;;;;1.00;0.88;;;;;;;20.20;100.00;94576.34;5038247;28;20029;-87
2022/08/24 06:33:00;;;;;;;1.75;0.90;;;;;;;20.15;100.00;94582.63;5037253;28;20021;-86
2022/08/24 06:35:26;;;;;;;0.90;0.70;;;;;;;20.33;100.00;94579.84;5036926;28;20337;-87
2022/08/24 06:37:51;;;;;;;1.77;0.77;;;;;;;20.42;100.00;94575.25;5020524;28;20021;-86
2022/08/24 06:40:19;;;;;;;1.42;0.70;;;;;;;20.53;100.00;94575.63;5020303;28;20021;-87
2022/08/24 06:42:47;;;;;;;1.35;0.70;;;;;;;20.47;100.00;94575.03;5020850;28;20025;-87
2022/08/24 06:45:13;;;;;;;2.38;0.90;;;;;;;20.43;100.00;94571.47;5036885;28;20049;-87
2022/08/24 06:47:40;;;;;;;1.67;1.05;;;;;;;20.51;100.00;94569.06;5020313;28;20106;-87
2022/08/24 06:50:07;;;;;;;1.17;0.80;;;;;;;20.57;100.00;94573.88;5020591;28;20051;-88
2022/08/24 06:52:34;;;;;;;2.90;0.82;;;;;;;20.40;100.00;94574.81;5004136;28;20025;-87
2022/08/24 06:55:02;;;;;;;1.50;0.70;;;;;;;20.61;100.00;94579.31;5038081;28;20021;-87
2022/08/24 06:57:27;;;;;;;1.67;0.80;;;;;;;20.30;100.00;94578.63;5020325;28;20029;-86
2022/08/24 06:59:53;;;;;;;1.77;1.00;;;;;;;20.37;100.00;94575.44;5019904;28;20336;-87
2022/08/24 07:02:18;;;;;;;2.92;1.20;;;;;;;20.25;100.00;94575.38;5020052;28;20029;-87
2022/08/24 07:04:45;;;;;;;2.85;0.80;;;;;;;20.59;100.00;94577.00;5020175;28;20025;-87
2022/08/24 07:07:11;;;;;;;0.90;0.75;;;;;;;20.47;100.00;94585.69;5036476;28;20021;-87
2022/08/24 07:09:37;;;;;;;5.88;0.73;;;;;;;20.86;100.00;94587.44;5019670;28;20439;-87
2022/08/24 07:12:03;;;;;;;3.00;0.90;;;;;;;21.07;100.00;94581.28;5039961;28;20083;-87
2022/08/24 07:14:28;;;;;;;6.40;0.85;;;;;;;21.26;100.00;94580.78;5060360;28;20024;-87
2022/08/24 07:16:55;;;;;;;1.52;0.70;;;;;;;21.35;100.00;94588.66;5024521;28;20457;-87
2022/08/24 07:19:24;;;;;;;2.00;1.17;;;;;;;21.15;100.00;94585.75;5039649;28;20016;-87
2022/08/24 07:21:49;;;;;;;9.30;1.00;;;;;;;21.15;100.00;94586.53;5057301;28;20028;-87
2022/08/24 07:24:15;;;;;;;5.82;1.00;;;;;;;21.22;100.00;94579.88;5039939;28;20426;-87
2022/08/24 07:26:41;;;;;;;4.25;0.90;;;;;;;21.29;100.00;94585.44;5039533;28;20024;-86
2022/08/24 07:29:14;;;;;;;3.22;0.90;;;;;;;21.40;100.00;94591.16;5022682;28;20434;-87
2022/08/24 07:31:40;;;;;;;1.75;0.68;;;;;;;21.47;100.00;94583.38;5023638;28;20028;-86
2022/08/24 07:34:08;;;;;;;4.03;0.60;;;;;;;21.47;100.00;94596.69;5039118;28;20017;-87
2022/08/24 07:36:35;;;;;;;1.33;0.82;;;;;;;21.65;100.00;94586.59;5039402;28;20048;-87
2022/08/24 07:39:02;;;;;;;2.97;0.70;;;;;;;21.90;100.00;94591.97;5022380;28;20020;-87
2022/08/24 07:41:30;;;;;;;1.77;0.60;;;;;;;22.10;100.00;94594.84;5023254;28;20025;-87
2022/08/24 07:43:56;;;;;;;2.72;0.60;;;;;;;22.21;100.00;94590.63;5039414;28;20128;-87
2022/08/24 07:46:21;;;;;;;0.75;0.65;;;;;;;22.17;100.00;94589.75;5039232;28;20428;-86
2022/08/24 07:48:47;;;;;;;0.85;0.50;;;;;;;22.21;100.00;94593.28;5022439;28;20053;-87
2022/08/24 07:51:15;;;;;;;0.57;0.57;;;;;;;21.99;100.00;94595.28;5022923;28;20060;-87
2022/08/24 07:53:41;;;;;;;3.92;0.80;;;;;;;21.98;100.00;94593.75;5022858;28;20021;-87
2022/08/24 07:56:10;;;;;;;1.25;0.80;;;;;;;21.91;100.00;94598.88;5038690;28;20116;-87
2022/08/24 07:58:35;;;;;;;1.52;0.50;;;;;;;22.10;100.00;94584.97;5039026;28;20449;-87
2022/08/24 08:01:03;;;;;;;1.13;0.60;;;;;;;22.03;100.00;94596.19;5022887;28;20021;-87
2022/08/24 08:03:32;;;;;;;2.33;0.60;;;;;;;22.32;100.00;94601.59;5038968;28;20028;-88
2022/08/24 08:05:59;;;;;;;2.22;0.98;;;;;;;22.36;100.00;94604.38;5039411;28;20056;-89
2022/08/24 08:08:26;;;;;;;0.70;0.68;;;;;;;22.57;100.00;94606.91;5038888;28;20493;-88
2022/08/24 08:10:51;;;;;;;1.08;0.57;;;;;;;22.17;100.00;94606.50;5038545;28;20438;-87
2022/08/24 08:13:17;;;;;;;1.30;0.80;;;;;;;22.33;100.00;94603.16;5038940;28;20025;-87
2022/08/24 08:15:46;;;;;;;1.55;0.70;;;;;;;22.46;100.00;94602.00;5025544;28;20350;-87
2022/08/24 08:18:11;;;;;;;0.50;0.50;;;;;;;22.78;100.00;94603.28;5003053;28;20335;-87
2022/08/24 08:20:39;;;;;;;2.65;0.90;;;;;;;22.63;100.00;94600.22;5003028;28;20017;-86
2022/08/24 08:25:56;;;;;;;4.13;1.10;;;;;;;22.31;100.00;94600.03;5021589;28;20079;-87
2022/08/24 08:28:23;;;;;;;1.00;0.85;;;;;;;22.77;100.00;94605.19;5003224;28;20055;-86
2022/08/24 08:30:48;;;;;;;1.48;1.00;;;;;;;22.46;100.00;94604.69;5018666;28;20022;-86
2022/08/24 08:33:14;;;;;;;17.88;1.92;;;;;;;22.75;100.00;94604.75;5036758;28;20021;-86
2022/08/24 08:35:43;;;;;;;1.42;0.80;;;;;;;22.90;100.00;94599.78;5026654;28;20032;-88
2022/08/24 08:38:09;;;;;;;1.98;0.98;;;;;;;22.84;100.00;94605.38;5018849;28;20112;-87
2022/08/24 08:40:44;;;;;;;2.03;0.77;;;;;;;22.82;100.00;94599.59;5019077;28;20021;-87
2022/08/24 08:43:59;;;;;;;2.50;0.85;;;;;;;22.83;100.00;94608.38;5022718;28;20025;-90
2022/08/24 08:46:53;;;;;;;3.22;0.70;;;;;;;22.82;100.00;94604.94;5002354;28;20084;-86
2022/08/24 08:49:37;;;;;;;;;;;;;;;22.81;100.00;94602.59;5018428;28;20057;-86
2022/08/24 08:52:26;;;;;;;3.05;0.60;;;;;;;23.10;100.00;94606.06;5041936;28;20333;-87
2022/08/24 08:54:54;;;;;;;1.02;0.70;;;;;;;23.00;100.00;94608.09;5026695;28;20029;-88
2022/08/24 08:57:23;;;;;;;1.33;0.80;;;;;;;23.19;100.00;94605.91;5055893;28;20025;-87
2022/08/24 08:59:48;;;;;;;2.00;0.80;;;;;;;23.27;100.00;94611.09;5055584;28;20422;-86
2022/08/24 09:02:48;;;;;;;3.42;1.00;;;;;;;22.97;100.00;94600.75;5055921;28;20079;-86
2022/08/24 09:05:26;;;;;;;1.67;0.88;;;;;;;22.92;100.00;94602.91;5055924;28;20017;-86
2022/08/24 09:08:24;;;;;;;2.22;0.70;;;;;;;22.66;100.00;94602.19;5055441;28;20036;-86
2022/08/24 09:11:08;;;;;;;3.42;1.02;;;;;;;22.53;100.00;94604.13;5041853;28;20029;-86
2022/08/24 09:13:52;;;;;;;3.00;0.90;;;;;;;22.84;100.00;94599.25;5059452;28;20098;-87
2022/08/24 09:16:43;;;;;;;3.30;0.98;;;;;;;22.90;100.00;94603.22;5050314;28;20030;-86
2022/08/24 09:19:27;;;;;;;3.65;0.85;;;;;;;23.38;100.00;94613.25;5001450;28;20037;-86
2022/08/24 09:22:15;;;;;;;3.58;0.90;;;;;;;23.36;100.00;94612.84;5039160;28;20026;-86
2022/08/24 09:24:52;;;;;;;2.85;1.02;;;;;;;23.40;100.00;94611.81;5005356;28;20027;-85
2022/08/24 09:27:33;;;;;;;1.77;0.90;;;;;;;23.36;100.00;94605.59;5039244;28;20033;-84
2022/08/24 09:30:05;;;;;;;0.93;0.77;;;;;;;22.99;100.00;94595.84;5005165;28;20029;-84
2022/08/24 09:33:11;;;;;;;3.65;0.90;;;;;;;22.93;100.00;94602.53;5039032;28;20029;-84
2022/08/24 09:35:46;;;;;;;1.30;1.20;;;;;;;23.27;100.00;94592.41;4939594;29;20055;-85
2022/08/24 09:38:42;;;;;;;2.90;0.65;;;;;;;23.17;100.00;94600.88;4939577;29;20134;-87
2022/08/24 09:41:26;;;;;;;2.42;1.10;;;;;;;23.33;100.00;94602.81;4996810;28;20033;-90
2022/08/24 09:44:15;;;;;;;1.48;0.90;;;;;;;23.59;100.00;94599.66;5040753;28;20032;-89
2022/08/24 09:47:39;;;;;;;1.23;0.90;;;;;;;23.13;100.00;94600.03;5005442;28;20029;-90
2022/08/24 09:50:20;;;;;;;2.60;1.05;;;;;;;23.28;100.00;94601.97;5020811;28;20533;-89
2022/08/24 09:53:25;;;;;;;1.90;0.80;;;;;;;23.76;100.00;94598.53;5021408;28;20025;-90
2022/08/24 09:56:24;;;;;;;1.33;1.00;;;;;;;24.03;100.00;94588.09;5039053;28;20112;-90
2022/08/24 09:59:11;;;;;;;1.92;0.82;;;;;;;24.19;100.00;94603.34;5046322;28;20052;-89
2022/08/24 10:01:55;;;;;;;1.52;0.82;;;;;;;24.22;100.00;94598.06;5040864;28;20024;-88
2022/08/24 10:04:32;;;;;;;1.40;0.80;;;;;;;23.82;100.00;94596.38;5040961;28;20060;-89
2022/08/24 10:07:19;;;;;;;1.40;1.00;;;;;;;23.83;100.00;94587.22;5041274;28;20059;-89
2022/08/24 10:10:17;;;;;;;2.00;1.20;;;;;;;23.72;100.00;94598.44;5057984;28;20033;-91
2022/08/24 10:13:01;;;;;;;5.45;1.40;;;;;;;23.56;100.00;94585.09;5027513;28;20044;-88
2022/08/24 10:15:47;;;;;;;1.58;1.00;;;;;;;23.97;100.00;94586.78;5024637;28;20436;-89
2022/08/24 10:18:42;;;;;;;3.38;1.20;;;;;;;24.33;100.00;94578.78;5024049;28;20076;-88
2022/08/24 10:21:12;;;;;;;1.63;1.00;;;;;;;24.43;100.00;94587.03;5024216;28;20029;-89
2022/08/24 10:24:15;;;;;;;1.83;1.10;;;;;;;24.52;100.00;94584.16;5058615;28;20067;-89
2022/08/24 10:27:08;;;;;;;3.55;1.02;;;;;;;24.95;100.00;94578.88;5058190;28;20025;-90
2022/08/24 10:29:51;;;;;;;3.30;1.00;;;;;;;24.87;100.00;94576.41;5040253;28;20457;-89
2022/08/24 10:32:17;;;;;;;;;;;;;;;25.00;100.00;94577.81;5040933;28;20036;-90
2022/08/24 10:34:44;;;;;;;4.97;1.30;;;;;;;25.02;100.00;94574.78;5057970;28;19908;-91
2022/08/24 10:37:13;;;;;;;3.33;1.10;;;;;;;25.13;100.00;94568.47;5040302;28;20270;-89
2022/08/24 10:40:04;;;;;;;5.25;1.20;;;;;;;25.22;100.00;94578.97;5040233;28;20052;-89
2022/08/24 10:46:06;;;;;;;2.20;1.00;;;;;;;24.07;100.00;94570.19;5043051;28;20077;-89
2022/08/24 10:48:31;;;;;;;1.25;0.98;;;;;;;24.31;100.00;94571.09;5057539;28;20024;-89
2022/08/24 10:51:09;;;;;;;2.17;0.90;;;;;;;24.46;100.00;94571.41;5040118;28;20021;-88
2022/08/24 10:53:37;;;;;;;2.58;1.20;;;;;;;24.45;100.00;94570.59;5053909;28;20032;-90
2022/08/24 10:56:11;;;;;;;2.25;0.93;;;;;;;24.66;100.00;94569.50;5023722;28;20036;-89
2022/08/24 10:58:42;;;;;;;3.72;1.52;;;;;;;24.75;100.00;94566.59;5057089;28;20025;-89
2022/08/24 11:01:35;;;;;;;1.35;0.85;;;;;;;24.78;100.00;94569.38;5040186;28;20028;-89
2022/08/24 11:04:08;;;;;;;4.03;3.03;;;;;;;25.48;100.00;94568.69;5023870;28;20130;-89
2022/08/24 11:07:12;;;;;;;1.65;1.10;;;;;;;25.23;96.50;94571.72;5039891;28;20021;-88
2022/08/24 11:09:52;;;;;;;1.35;1.10;;;;;;;24.91;97.69;94578.03;5056686;28;20071;-88
2022/08/24 11:12:27;;;;;;;3.65;1.30;;;;;;;24.85;96.24;94574.09;5039971;28;20036;-90
2022/08/24 11:14:55;;;;;;;3.15;1.02;;;;;;;25.10;95.09;94574.56;5023222;28;20028;-90
2022/08/24 11:17:23;;;;;;;1.80;1.10;;;;;;;25.19;94.88;94573.56;5039780;28;20164;-89
2022/08/24 11:19:52;;;;;;;2.55;1.17;;;;;;;25.59;93.66;94571.56;5038498;28;20488;-89
2022/08/24 11:22:36;;;;;;;5.22;1.33;;;;;;;25.99;91.81;94570.25;5039558;28;20074;-89
2022/08/24 11:25:15;;;;;;;2.40;1.10;;;;;;;25.89;90.41;94574.31;5023938;28;20033;-89
2022/08/24 11:27:45;;;;;;;1.67;1.00;;;;;;;25.45;88.64;94578.22;5038717;28;20033;-89
2022/08/24 11:30:18;;;;;;;1.95;1.08;;;;;;;25.63;95.45;94575.06;5055815;28;20166;-89
2022/08/24 11:32:51;;;;;;;4.15;1.05;;;;;;;25.30;91.23;94581.78;5047310;28;20032;-89
2022/08/24 11:35:19;;;;;;;1.48;0.90;;;;;;;24.62;97.51;94582.81;5039540;28;20021;-89
2022/08/24 11:37:46;;;;;;;3.45;1.00;;;;;;;24.64;92.47;94580.56;5038761;28;20036;-89
2022/08/24 11:40:13;;;;;;;2.45;0.80;;;;;;;24.92;95.31;94578.81;5023108;28;20115;-90
2022/08/24 11:43:15;;;;;;;2.15;1.10;;;;;;;24.90;98.58;94568.44;5056812;28;20021;-90
2022/08/24 11:46:31;;;;;;;3.88;1.10;;;;;;;24.75;92.05;94580.00;5039245;28;20020;-91
2022/08/24 11:49:41;;;;;;;4.18;1.67;;;;;;;24.16;99.23;94572.69;5038881;28;20098;-91
2022/08/24 11:52:25;;;;;;;1.95;1.00;;;;;;;24.70;95.85;94571.13;5014244;28;20049;-90
2022/08/24 11:55:01;;;;;;;2.03;1.30;;;;;;;25.42;89.60;94573.56;5053332;28;20060;-89
2022/08/24 11:57:40;;;;;;;4.22;1.00;;;;;;;25.46;87.50;94563.66;5038609;28;20128;-90
2022/08/24 12:00:08;;;;;;;7.70;5.25;;;;;;;25.45;82.29;94567.50;5038799;28;20115;-89
2022/08/24 12:02:51;;;;;;;2.88;1.17;;;;;;;25.32;82.50;94574.94;5056372;28;20495;-90
2022/08/24 12:05:36;;;;;;;1.60;1.15;;;;;;;25.61;83.34;94571.97;5038927;28;20032;-89
2022/08/24 12:08:19;;;;;;;3.58;1.20;;;;;;;25.80;82.29;94566.53;5038683;28;20102;-90
2022/08/24 12:11:13;;;;;;;1.55;0.82;;;;;;;26.11;79.10;94569.25;5056363;28;20037;-90
2022/08/24 12:14:01;;;;;;;5.18;1.00;;;;;;;25.79;82.47;94566.91;5056363;28;20358;-89
2022/08/24 12:16:39;;;;;;;1.88;0.90;;;;;;;26.45;78.41;94569.34;5021734;28;20032;-89
2022/08/24 12:19:28;;;;;;;;;;;;;;;;;;;;;
2022/08/24 12:21:59;;;;;;;3.63;1.08;;;;;;;26.60;84.82;94567.63;5056221;28;20021;-89
2022/08/24 12:24:42;;;;;;;1.65;1.00;;;;;;;26.13;80.38;94564.31;5023135;28;20033;-90
2022/08/24 12:27:21;;;;;;;1.92;1.10;;;;;;;26.74;73.58;94567.00;5038837;28;20025;-90